Time;durP1;ratioP1;P1;durP2;ratioP2;P2;SDS_P1;SDS_P2;PMS_P1;PMS_P2;Temp;Humidity;BMP_temperature;BMP_pressure;BME280_temperature;BME280_humidity;BME280_pressure;Samples;Min_cycle;Max_cycle;Signal;HPM_P1;HPM_P2
2023/12/06 00:00:12;;;;;;;4.32;2.15;;;;;;;;;;2090618;28;20064;-58
2023/12/06 00:01:13;;;;;;;3.17;1.05;;;;;;;;;;2090126;28;20044;-59
2023/12/06 00:02:14;;;;;;;4.70;2.05;;;;;;;;;;2090567;28;20037;-58
2023/12/06 00:03:15;;;;;;;3.58;2.33;;;;;;;;;;2090283;28;20393;-58
2023/12/06 00:04:17;;;;;;;5.68;2.92;;;;;;;;;;2090401;28;20049;-58
2023/12/06 00:05:17;;;;;;;4.15;2.63;;;;;;;;;;2090288;28;20045;-59
2023/12/06 00:06:18;;;;;;;3.55;2.30;;;;;;;;;;2090268;28;20036;-59
2023/12/06 00:07:19;;;;;;;5.47;3.40;;;;;;;;;;2090374;28;20033;-59
2023/12/06 00:08:19;;;;;;;5.25;3.13;;;;;;;;;;2089987;28;20045;-59
2023/12/06 00:09:20;;;;;;;4.00;2.42;;;;;;;;;;2090493;28;20052;-59
2023/12/06 00:10:21;;;;;;;5.15;2.90;;;;;;;;;;2090241;28;20036;-58
2023/12/06 00:11:22;;;;;;;6.07;2.85;;;;;;;;;;2089978;28;20052;-58
2023/12/06 00:12:22;;;;;;;4.05;2.38;;;;;;;;;;2090202;28;20040;-59
2023/12/06 00:13:23;;;;;;;2.67;1.50;;;;;;;;;;2090312;28;20382;-58
2023/12/06 00:14:24;;;;;;;4.72;2.58;;;;;;;;;;2090588;28;20108;-59
2023/12/06 00:15:24;;;;;;;3.63;2.08;;;;;;;;;;2090488;28;20032;-60
2023/12/06 00:16:25;;;;;;;3.05;1.83;;;;;;;;;;2090327;28;20029;-59
2023/12/06 00:17:26;;;;;;;6.00;3.08;;;;;;;;;;2090197;28;20029;-60
2023/12/06 00:18:27;;;;;;;4.18;2.17;;;;;;;;;;2090175;28;20462;-60
2023/12/06 00:19:28;;;;;;;3.00;1.73;;;;;;;;;;2090216;28;20492;-59
2023/12/06 00:20:28;;;;;;;3.55;2.28;;;;;;;;;;2090839;28;20048;-59
2023/12/06 00:21:30;;;;;;;4.00;2.13;;;;;;;;;;2090689;28;20037;-59
2023/12/06 00:22:30;;;;;;;5.13;2.63;;;;;;;;;;2089659;28;20436;-59
2023/12/06 00:23:31;;;;;;;3.67;2.20;;;;;;;;;;2090163;28;20021;-59
2023/12/06 00:24:32;;;;;;;3.30;1.95;;;;;;;;;;2092850;28;20041;-59
2023/12/06 00:25:32;;;;;;;3.45;2.25;;;;;;;;;;2092956;28;20064;-59
2023/12/06 00:26:34;;;;;;;3.75;2.75;;;;;;;;;;2092659;28;20045;-59
2023/12/06 00:27:34;;;;;;;2.72;1.90;;;;;;;;;;2092894;28;20397;-59
2023/12/06 00:28:35;;;;;;;3.08;2.30;;;;;;;;;;2092885;28;20044;-60
2023/12/06 00:29:36;;;;;;;2.67;1.77;;;;;;;;;;2092922;28;20037;-59
2023/12/06 00:30:37;;;;;;;4.03;1.83;;;;;;;;;;2093086;28;20041;-60
2023/12/06 00:31:37;;;;;;;2.92;1.88;;;;;;;;;;2093312;28;20401;-59
2023/12/06 00:32:38;;;;;;;2.85;1.52;;;;;;;;;;2093323;28;20465;-60
2023/12/06 00:33:39;;;;;;;3.92;2.60;;;;;;;;;;2092996;28;20029;-59
2023/12/06 00:34:39;;;;;;;2.10;1.17;;;;;;;;;;2093201;28;20033;-59
2023/12/06 00:35:40;;;;;;;3.13;1.40;;;;;;;;;;2092867;28;20040;-60
2023/12/06 00:36:41;;;;;;;5.07;3.00;;;;;;;;;;2092906;28;20040;-59
2023/12/06 00:37:42;;;;;;;2.72;1.98;;;;;;;;;;2092666;28;20511;-59
2023/12/06 00:38:42;;;;;;;4.85;2.40;;;;;;;;;;2093166;28;20040;-59
2023/12/06 00:39:43;;;;;;;3.50;1.88;;;;;;;;;;2092810;28;20024;-59
2023/12/06 00:40:44;;;;;;;3.95;2.70;;;;;;;;;;2092889;28;20025;-59
2023/12/06 00:41:44;;;;;;;6.18;2.60;;;;;;;;;;2092912;28;20063;-59
2023/12/06 00:42:45;;;;;;;3.28;2.28;;;;;;;;;;2092892;28;20464;-59
2023/12/06 00:43:47;;;;;;;4.45;2.15;;;;;;;;;;2092416;28;20029;-59
2023/12/06 00:44:48;;;;;;;4.05;2.63;;;;;;;;;;2092440;28;20504;-59
2023/12/06 00:45:48;;;;;;;3.33;1.92;;;;;;;;;;2092836;28;20025;-59
2023/12/06 00:46:49;;;;;;;4.97;3.17;;;;;;;;;;2092972;28;20029;-58
2023/12/06 00:47:50;;;;;;;3.83;2.80;;;;;;;;;;2092830;28;20028;-59
2023/12/06 00:48:51;;;;;;;3.83;2.70;;;;;;;;;;2093123;28;20393;-60
2023/12/06 00:49:51;;;;;;;6.00;3.22;;;;;;;;;;2093200;28;20041;-59
2023/12/06 00:50:52;;;;;;;3.80;2.70;;;;;;;;;;2093147;28;20044;-59
2023/12/06 00:51:53;;;;;;;3.75;2.13;;;;;;;;;;2092758;28;20033;-59
2023/12/06 00:52:54;;;;;;;2.80;1.50;;;;;;;;;;2092890;28;20366;-59
2023/12/06 00:53:54;;;;;;;5.63;2.50;;;;;;;;;;2092855;28;20520;-58
2023/12/06 00:54:55;;;;;;;3.10;1.92;;;;;;;;;;2092819;28;20476;-58
2023/12/06 00:55:56;;;;;;;5.07;3.03;;;;;;;;;;2092037;28;20048;-59
2023/12/06 00:56:56;;;;;;;4.88;3.13;;;;;;;;;;2092784;28;20021;-59
2023/12/06 00:57:57;;;;;;;3.67;2.38;;;;;;;;;;2092733;28;20048;-59
2023/12/06 00:58:58;;;;;;;5.07;3.40;;;;;;;;;;2092941;28;20025;-59
2023/12/06 00:59:59;;;;;;;1.95;1.23;;;;;;;;;;2092637;28;20037;-59
2023/12/06 01:00:59;;;;;;;5.15;2.83;;;;;;;;;;2092616;28;20401;-59
2023/12/06 01:02:00;;;;;;;2.90;1.70;;;;;;;;;;2093019;28;20025;-59
2023/12/06 01:03:01;;;;;;;5.93;3.10;;;;;;;;;;2092932;28;20051;-59
2023/12/06 01:04:02;;;;;;;2.50;1.65;;;;;;;;;;2092165;28;20127;-59
2023/12/06 01:05:04;;;;;;;4.35;2.88;;;;;;;;;;2092795;28;20029;-58
2023/12/06 01:06:04;;;;;;;4.32;3.10;;;;;;;;;;2092502;28;20033;-59
2023/12/06 01:07:05;;;;;;;4.47;2.17;;;;;;;;;;2092388;28;20384;-58
2023/12/06 01:08:06;;;;;;;5.45;2.17;;;;;;;;;;2092745;28;20049;-59
2023/12/06 01:09:08;;;;;;;5.20;1.98;;;;;;;;;;2092756;28;20059;-58
2023/12/06 01:10:09;;;;;;;2.20;1.45;;;;;;;;;;2092236;28;20056;-58
2023/12/06 01:11:09;;;;;;;4.00;2.10;;;;;;;;;;2092391;28;20047;-59
2023/12/06 01:12:10;;;;;;;4.57;3.00;;;;;;;;;;2093086;28;20036;-58
2023/12/06 01:13:11;;;;;;;4.32;2.28;;;;;;;;;;2092960;28;20037;-58
2023/12/06 01:14:11;;;;;;;3.17;2.08;;;;;;;;;;2093505;28;20417;-59
2023/12/06 01:15:12;;;;;;;4.07;2.25;;;;;;;;;;2092908;28;20128;-58
2023/12/06 01:16:13;;;;;;;2.67;1.70;;;;;;;;;;2092753;28;20051;-58
2023/12/06 01:17:14;;;;;;;2.30;1.58;;;;;;;;;;2092832;28;20037;-59
2023/12/06 01:18:14;;;;;;;4.82;2.72;;;;;;;;;;2092826;28;20036;-59
2023/12/06 01:19:16;;;;;;;4.43;2.55;;;;;;;;;;2092705;28;20032;-59
2023/12/06 01:20:17;;;;;;;3.63;1.77;;;;;;;;;;2093432;28;20032;-59
2023/12/06 01:21:17;;;;;;;4.47;1.73;;;;;;;;;;2092928;28;20488;-59
2023/12/06 01:22:18;;;;;;;2.97;1.77;;;;;;;;;;2092768;28;20044;-58
2023/12/06 01:23:19;;;;;;;3.92;3.00;;;;;;;;;;2093105;28;20025;-58
2023/12/06 01:24:20;;;;;;;3.65;2.22;;;;;;;;;;2092698;28;20086;-58
2023/12/06 01:25:21;;;;;;;4.90;3.13;;;;;;;;;;2093023;28;20044;-58
2023/12/06 01:26:21;;;;;;;6.15;3.47;;;;;;;;;;2092732;28;20040;-57
2023/12/06 01:27:22;;;;;;;4.20;2.65;;;;;;;;;;2092894;28;20397;-58
2023/12/06 01:28:23;;;;;;;4.00;3.00;;;;;;;;;;2092656;28;20488;-58
2023/12/06 01:29:23;;;;;;;3.40;2.15;;;;;;;;;;2092938;28;20051;-58
2023/12/06 01:30:24;;;;;;;5.20;2.63;;;;;;;;;;2092367;28;20033;-58
2023/12/06 01:31:25;;;;;;;4.20;2.88;;;;;;;;;;2092407;28;20047;-58
2023/12/06 01:32:26;;;;;;;3.75;2.17;;;;;;;;;;2092669;28;20037;-58
2023/12/06 01:33:26;;;;;;;1.85;1.10;;;;;;;;;;2093045;28;20386;-58
2023/12/06 01:34:27;;;;;;;4.28;2.38;;;;;;;;;;2092116;28;20051;-58
2023/12/06 01:35:28;;;;;;;3.67;2.17;;;;;;;;;;2091396;28;20021;-58
2023/12/06 01:36:28;;;;;;;5.03;3.00;;;;;;;;;;2090916;28;20049;-59
2023/12/06 01:37:29;;;;;;;3.83;2.17;;;;;;;;;;2091332;28;20041;-58
2023/12/06 01:38:30;;;;;;;3.47;1.98;;;;;;;;;;2091516;28;20393;-59
2023/12/06 01:39:31;;;;;;;2.65;1.40;;;;;;;;;;2091464;28;20102;-58
2023/12/06 01:40:33;;;;;;;4.15;2.40;;;;;;;;;;2091360;28;20641;-58
2023/12/06 01:41:34;;;;;;;4.80;2.90;;;;;;;;;;2091402;28;20044;-59
2023/12/06 01:42:35;;;;;;;3.75;2.35;;;;;;;;;;2091508;28;20041;-59
2023/12/06 01:43:36;;;;;;;4.97;2.55;;;;;;;;;;2091330;28;20530;-58
2023/12/06 01:44:37;;;;;;;2.33;1.35;;;;;;;;;;2091428;28;20046;-59
2023/12/06 01:45:38;;;;;;;4.07;2.00;;;;;;;;;;2091434;28;20484;-59
2023/12/06 01:46:39;;;;;;;2.60;1.35;;;;;;;;;;2091321;28;20048;-58
2023/12/06 01:47:39;;;;;;;3.70;2.42;;;;;;;;;;2091312;28;20037;-59
2023/12/06 01:48:42;;;;;;;3.67;2.35;;;;;;;;;;2091564;28;20465;-59
2023/12/06 01:49:43;;;;;;;3.00;1.77;;;;;;;;;;2090492;28;20052;-58
2023/12/06 01:50:43;;;;;;;3.42;2.05;;;;;;;;;;2090344;28;20117;-58
2023/12/06 01:51:44;;;;;;;4.00;2.38;;;;;;;;;;2091093;28;20040;-58
2023/12/06 01:52:45;;;;;;;4.88;2.67;;;;;;;;;;2091157;28;20488;-58
2023/12/06 01:53:45;;;;;;;3.70;2.10;;;;;;;;;;2091501;28;20052;-58
2023/12/06 01:54:47;;;;;;;5.10;2.92;;;;;;;;;;2091235;28;20021;-58
2023/12/06 01:55:47;;;;;;;3.92;2.50;;;;;;;;;;2091007;28;20397;-59
2023/12/06 01:56:48;;;;;;;2.75;1.75;;;;;;;;;;2091904;28;20037;-58
2023/12/06 01:57:49;;;;;;;3.25;1.40;;;;;;;;;;2091585;28;20045;-58
2023/12/06 01:58:49;;;;;;;1.88;1.45;;;;;;;;;;2091071;28;20040;-59
2023/12/06 01:59:50;;;;;;;3.40;1.92;;;;;;;;;;2091192;28;20087;-58
2023/12/06 02:00:51;;;;;;;3.28;1.77;;;;;;;;;;2091393;28;20029;-58
2023/12/06 02:01:52;;;;;;;4.53;2.58;;;;;;;;;;2090548;28;20037;-58
2023/12/06 02:02:52;;;;;;;3.60;2.00;;;;;;;;;;2090436;28;20068;-59
2023/12/06 02:03:53;;;;;;;3.53;1.88;;;;;;;;;;2091174;28;20037;-58
2023/12/06 02:04:54;;;;;;;3.58;1.80;;;;;;;;;;2090796;28;20037;-58
2023/12/06 02:05:54;;;;;;;3.97;2.38;;;;;;;;;;2090723;28;20354;-58
2023/12/06 02:06:55;;;;;;;5.80;1.85;;;;;;;;;;2091420;28;20020;-59
2023/12/06 02:07:56;;;;;;;2.50;1.60;;;;;;;;;;2091323;28;20025;-58
2023/12/06 02:08:57;;;;;;;2.53;1.15;;;;;;;;;;2090610;28;20041;-59
2023/12/06 02:09:58;;;;;;;3.25;1.95;;;;;;;;;;2090503;28;20045;-59
2023/12/06 02:10:59;;;;;;;3.15;2.28;;;;;;;;;;2091180;28;20029;-58
2023/12/06 02:11:59;;;;;;;3.40;2.03;;;;;;;;;;2090608;28;20385;-58
2023/12/06 02:13:00;;;;;;;3.40;1.80;;;;;;;;;;2090887;28;20044;-59
2023/12/06 02:14:01;;;;;;;2.53;1.17;;;;;;;;;;2090254;28;20124;-59
2023/12/06 02:15:02;;;;;;;3.55;1.77;;;;;;;;;;2091337;28;20437;-58
2023/12/06 02:16:03;;;;;;;2.75;1.52;;;;;;;;;;2091063;28;20041;-58
2023/12/06 02:17:04;;;;;;;2.80;1.70;;;;;;;;;;2090670;28;20092;-58
2023/12/06 02:18:05;;;;;;;2.92;2.10;;;;;;;;;;2090094;28;20465;-58
2023/12/06 02:19:06;;;;;;;3.55;2.25;;;;;;;;;;2090981;28;20045;-58
2023/12/06 02:20:07;;;;;;;4.15;1.60;;;;;;;;;;2090987;28;20040;-58
2023/12/06 02:21:08;;;;;;;2.90;2.00;;;;;;;;;;2091341;28;20029;-58
2023/12/06 02:22:09;;;;;;;3.13;1.80;;;;;;;;;;2091238;28;20033;-58
2023/12/06 02:23:09;;;;;;;4.00;2.35;;;;;;;;;;2091130;28;20037;-58
2023/12/06 02:24:11;;;;;;;5.35;2.60;;;;;;;;;;2090589;28;20120;-58
2023/12/06 02:25:14;;;;;;;2.60;1.60;;;;;;;;;;2090663;28;20033;-59
2023/12/06 02:26:15;;;;;;;4.03;2.00;;;;;;;;;;2090149;28;20049;-58
2023/12/06 02:27:16;;;;;;;2.83;1.70;;;;;;;;;;2090234;28;20041;-57
2023/12/06 02:28:17;;;;;;;4.00;1.85;;;;;;;;;;2091028;28;20052;-57
2023/12/06 02:29:18;;;;;;;3.85;2.65;;;;;;;;;;2091053;28;20072;-58
2023/12/06 02:30:18;;;;;;;2.30;0.80;;;;;;;;;;2090998;28;20029;-58
2023/12/06 02:31:19;;;;;;;1.83;1.27;;;;;;;;;;2090677;28;20060;-58
2023/12/06 02:32:20;;;;;;;4.07;2.33;;;;;;;;;;2091273;28;20044;-59
2023/12/06 02:33:21;;;;;;;3.55;1.90;;;;;;;;;;2091066;28;20397;-58
2023/12/06 02:34:22;;;;;;;3.60;1.45;;;;;;;;;;2090949;28;20049;-58
2023/12/06 02:35:28;;;;;;;2.70;1.75;;;;;;;;;;2090384;28;20436;-58
2023/12/06 02:36:29;;;;;;;1.95;1.23;;;;;;;;;;2090683;28;20412;-58
2023/12/06 02:37:30;;;;;;;3.00;1.60;;;;;;;;;;2090621;28;20033;-58
2023/12/06 02:38:31;;;;;;;2.05;1.05;;;;;;;;;;2089976;28;20083;-59
2023/12/06 02:39:34;;;;;;;4.18;2.17;;;;;;;;;;2089673;28;20045;-58
2023/12/06 02:40:35;;;;;;;2.65;1.63;;;;;;;;;;2090558;28;20029;-59
2023/12/06 02:41:36;;;;;;;2.80;1.80;;;;;;;;;;2090308;28;20124;-58
2023/12/06 02:42:36;;;;;;;1.30;0.75;;;;;;;;;;2090989;28;20041;-59
2023/12/06 02:43:37;;;;;;;4.75;2.25;;;;;;;;;;2091121;28;20056;-58
2023/12/06 02:44:38;;;;;;;2.53;1.77;;;;;;;;;;2090024;28;20421;-59
2023/12/06 02:45:39;;;;;;;4.00;2.05;;;;;;;;;;2089221;28;20033;-59
2023/12/06 02:46:39;;;;;;;2.67;1.60;;;;;;;;;;2080928;28;20045;-58
2023/12/06 02:47:40;;;;;;;3.85;1.75;;;;;;;;;;2081429;28;20037;-59
2023/12/06 02:48:41;;;;;;;3.13;2.20;;;;;;;;;;2089861;28;20041;-59
2023/12/06 02:49:41;;;;;;;2.95;1.77;;;;;;;;;;2090543;28;20448;-59
2023/12/06 02:50:42;;;;;;;2.83;1.75;;;;;;;;;;2090710;28;20410;-59
2023/12/06 02:51:43;;;;;;;2.42;1.52;;;;;;;;;;2090396;28;20041;-59
2023/12/06 02:52:43;;;;;;;2.17;1.42;;;;;;;;;;2091102;28;20040;-59
2023/12/06 02:53:44;;;;;;;1.70;0.98;;;;;;;;;;2090956;28;20036;-59
2023/12/06 02:54:45;;;;;;;3.78;2.40;;;;;;;;;;2090981;28;20033;-59
2023/12/06 02:55:46;;;;;;;6.03;2.55;;;;;;;;;;2090713;28;20040;-59
2023/12/06 02:56:46;;;;;;;3.92;2.20;;;;;;;;;;2090410;28;20500;-58
2023/12/06 02:57:47;;;;;;;2.30;1.67;;;;;;;;;;2090677;28;20069;-59
2023/12/06 02:58:48;;;;;;;2.88;2.03;;;;;;;;;;2090654;28;20036;-59
2023/12/06 02:59:48;;;;;;;4.03;1.92;;;;;;;;;;2090586;28;20032;-59
2023/12/06 03:00:49;;;;;;;3.10;1.95;;;;;;;;;;2090804;28;20029;-59
2023/12/06 03:01:50;;;;;;;2.40;1.67;;;;;;;;;;2090577;28;20397;-59
2023/12/06 03:02:51;;;;;;;3.75;2.65;;;;;;;;;;2090899;28;20029;-59
2023/12/06 03:03:52;;;;;;;2.60;1.30;;;;;;;;;;2091007;28;20028;-59
2023/12/06 03:04:52;;;;;;;2.65;1.80;;;;;;;;;;2090974;28;20024;-59
2023/12/06 03:05:53;;;;;;;2.58;1.67;;;;;;;;;;2090621;28;20040;-59
2023/12/06 03:06:54;;;;;;;3.50;1.77;;;;;;;;;;2090676;28;20385;-59
2023/12/06 03:07:54;;;;;;;4.43;2.70;;;;;;;;;;2090773;28;20028;-60
2023/12/06 03:08:55;;;;;;;3.25;2.10;;;;;;;;;;2090905;28;20022;-59
2023/12/06 03:09:56;;;;;;;3.67;2.40;;;;;;;;;;2090652;28;20041;-59
2023/12/06 03:10:57;;;;;;;3.53;1.73;;;;;;;;;;2090987;28;20066;-59
2023/12/06 03:11:57;;;;;;;1.77;1.20;;;;;;;;;;2090653;28;20045;-59
2023/12/06 03:12:58;;;;;;;1.63;0.93;;;;;;;;;;2090579;28;20040;-59
2023/12/06 03:13:59;;;;;;;2.78;1.20;;;;;;;;;;2090948;28;20032;-59
2023/12/06 03:14:59;;;;;;;3.05;1.98;;;;;;;;;;2090913;28;20377;-59
2023/12/06 03:16:00;;;;;;;4.60;2.40;;;;;;;;;;2091018;28;20029;-59
2023/12/06 03:17:01;;;;;;;3.72;2.13;;;;;;;;;;2090799;28;20083;-59
2023/12/06 03:18:02;;;;;;;4.88;2.40;;;;;;;;;;2090807;28;20525;-59
2023/12/06 03:19:02;;;;;;;4.72;2.85;;;;;;;;;;2090497;28;20469;-59
2023/12/06 03:20:06;;;;;;;4.38;1.77;;;;;;;;;;2090561;28;20056;-59
2023/12/06 03:21:07;;;;;;;5.90;2.58;;;;;;;;;;2090852;28;20021;-58
2023/12/06 03:22:08;;;;;;;5.25;3.22;;;;;;;;;;2090827;28;20033;-59
2023/12/06 03:23:08;;;;;;;6.47;2.70;;;;;;;;;;2090666;28;20041;-58
2023/12/06 03:24:09;;;;;;;3.70;2.00;;;;;;;;;;2090604;28;20032;-59
2023/12/06 03:25:10;;;;;;;3.00;2.15;;;;;;;;;;2090985;28;20052;-59
2023/12/06 03:26:10;;;;;;;3.30;2.15;;;;;;;;;;2090520;28;20048;-59
2023/12/06 03:27:11;;;;;;;5.05;2.80;;;;;;;;;;2090727;28;20369;-59
2023/12/06 03:28:12;;;;;;;5.30;3.38;;;;;;;;;;2090546;28;20052;-58
2023/12/06 03:29:13;;;;;;;2.63;1.30;;;;;;;;;;2090831;28;20047;-59
2023/12/06 03:30:14;;;;;;;4.63;2.92;;;;;;;;;;2090426;28;20045;-59
2023/12/06 03:31:14;;;;;;;5.32;3.22;;;;;;;;;;2090427;28;20040;-59
2023/12/06 03:32:15;;;;;;;6.45;3.22;;;;;;;;;;2091111;28;20056;-59
2023/12/06 03:33:16;;;;;;;7.97;3.90;;;;;;;;;;2089402;28;20048;-59
2023/12/06 03:34:16;;;;;;;5.45;3.20;;;;;;;;;;2090131;28;20043;-58
2023/12/06 03:35:17;;;;;;;4.80;2.40;;;;;;;;;;2090614;28;20056;-59
2023/12/06 03:36:18;;;;;;;4.90;2.67;;;;;;;;;;2090730;28;20365;-58
2023/12/06 03:37:19;;;;;;;3.42;2.03;;;;;;;;;;2090438;28;20041;-58
2023/12/06 03:38:19;;;;;;;6.68;3.10;;;;;;;;;;2090375;28;20142;-58
2023/12/06 03:39:20;;;;;;;5.00;2.85;;;;;;;;;;2090522;28;20393;-59
2023/12/06 03:40:21;;;;;;;4.68;2.20;;;;;;;;;;2091124;28;20041;-59
2023/12/06 03:41:21;;;;;;;4.35;2.72;;;;;;;;;;2090417;28;20025;-59
2023/12/06 03:42:22;;;;;;;5.20;2.85;;;;;;;;;;2090236;28;20040;-59
2023/12/06 03:43:23;;;;;;;5.95;3.45;;;;;;;;;;2090289;28;20029;-58
2023/12/06 03:44:24;;;;;;;7.38;3.40;;;;;;;;;;2090167;28;20099;-59
2023/12/06 03:45:24;;;;;;;6.60;3.53;;;;;;;;;;2090381;28;20045;-59
2023/12/06 03:46:25;;;;;;;7.72;2.88;;;;;;;;;;2090359;28;20045;-59
2023/12/06 03:47:26;;;;;;;5.72;2.55;;;;;;;;;;2090261;28;20049;-59
2023/12/06 03:48:26;;;;;;;6.32;3.65;;;;;;;;;;2090288;28;20064;-59
2023/12/06 03:49:27;;;;;;;8.43;3.58;;;;;;;;;;2090442;28;20052;-59
2023/12/06 03:50:28;;;;;;;5.45;3.75;;;;;;;;;;2090327;28;20044;-59
2023/12/06 03:51:29;;;;;;;5.90;3.78;;;;;;;;;;2090897;28;20414;-59
2023/12/06 03:52:30;;;;;;;6.97;4.65;;;;;;;;;;2090788;28;20044;-59
2023/12/06 03:53:30;;;;;;;5.97;3.30;;;;;;;;;;2090285;28;20059;-59
2023/12/06 03:54:31;;;;;;;6.95;3.88;;;;;;;;;;2090346;28;20052;-59
2023/12/06 03:55:32;;;;;;;5.90;3.30;;;;;;;;;;2089331;28;20048;-59
2023/12/06 03:56:33;;;;;;;6.18;3.83;;;;;;;;;;2090332;28;20488;-59
2023/12/06 03:57:33;;;;;;;4.50;2.90;;;;;;;;;;2090274;28;20124;-58
2023/12/06 03:58:35;;;;;;;6.05;3.05;;;;;;;;;;2089871;28;20101;-58
2023/12/06 03:59:36;;;;;;;4.63;2.70;;;;;;;;;;2089901;28;20063;-59
2023/12/06 04:00:38;;;;;;;4.07;2.00;;;;;;;;;;2090516;28;20036;-59
2023/12/06 04:01:41;;;;;;;8.07;3.97;;;;;;;;;;2090182;28;20045;-60
2023/12/06 04:02:42;;;;;;;5.97;3.33;;;;;;;;;;2090123;28;20036;-59
2023/12/06 04:03:44;;;;;;;4.20;2.85;;;;;;;;;;2089930;28;20106;-59
2023/12/06 04:04:44;;;;;;;6.22;3.70;;;;;;;;;;2089808;28;20041;-59
2023/12/06 04:05:45;;;;;;;6.25;3.83;;;;;;;;;;2090127;28;20049;-59
2023/12/06 04:06:46;;;;;;;8.55;3.95;;;;;;;;;;2089870;28;20041;-59
2023/12/06 04:07:46;;;;;;;7.07;3.83;;;;;;;;;;2090517;28;20055;-59
2023/12/06 04:08:47;;;;;;;7.18;3.90;;;;;;;;;;2090431;28;20465;-60
2023/12/06 04:09:48;;;;;;;7.43;3.67;;;;;;;;;;2090260;28;20045;-59
2023/12/06 04:10:48;;;;;;;5.22;2.65;;;;;;;;;;2090221;28;20040;-60
2023/12/06 04:11:49;;;;;;;6.57;3.42;;;;;;;;;;2090411;28;20037;-60
2023/12/06 04:12:50;;;;;;;4.80;3.05;;;;;;;;;;2090387;28;20116;-59
2023/12/06 04:13:51;;;;;;;5.72;3.08;;;;;;;;;;2090412;28;20040;-60
2023/12/06 04:14:53;;;;;;;9.80;3.85;;;;;;;;;;2089121;28;20041;-60
2023/12/06 04:15:54;;;;;;;6.28;2.95;;;;;;;;;;2089904;28;20037;-59
2023/12/06 04:16:55;;;;;;;4.68;2.10;;;;;;;;;;2090435;28;20029;-59
2023/12/06 04:17:56;;;;;;;5.82;3.35;;;;;;;;;;2090378;28;20473;-59
2023/12/06 04:18:57;;;;;;;4.30;2.22;;;;;;;;;;2090523;28;20377;-60
2023/12/06 04:19:57;;;;;;;6.60;3.80;;;;;;;;;;2090100;28;20033;-60
2023/12/06 04:20:58;;;;;;;5.00;3.30;;;;;;;;;;2090400;28;20036;-60
2023/12/06 04:21:59;;;;;;;8.90;3.90;;;;;;;;;;2090146;28;20029;-59
2023/12/06 04:22:59;;;;;;;5.68;3.22;;;;;;;;;;2090347;28;20029;-59
2023/12/06 04:24:00;;;;;;;6.18;2.95;;;;;;;;;;2090357;28;20412;-60
2023/12/06 04:25:01;;;;;;;6.05;3.38;;;;;;;;;;2090195;28;20041;-60
2023/12/06 04:26:02;;;;;;;6.40;3.10;;;;;;;;;;2090474;28;20029;-59
2023/12/06 04:27:03;;;;;;;3.95;2.63;;;;;;;;;;2090562;28;20024;-59
2023/12/06 04:28:04;;;;;;;6.60;3.17;;;;;;;;;;2090565;28;20037;-59
2023/12/06 04:29:05;;;;;;;5.38;3.60;;;;;;;;;;2090359;28;20021;-59
2023/12/06 04:30:06;;;;;;;4.03;2.60;;;;;;;;;;2090032;28;20041;-59
2023/12/06 04:31:07;;;;;;;6.90;3.63;;;;;;;;;;2090494;28;20044;-60
2023/12/06 04:32:07;;;;;;;2.95;1.80;;;;;;;;;;2090466;28;20029;-59
2023/12/06 04:33:08;;;;;;;6.50;3.30;;;;;;;;;;2090348;28;20491;-59
2023/12/06 04:34:10;;;;;;;7.00;2.95;;;;;;;;;;2090479;28;20480;-59
2023/12/06 04:35:11;;;;;;;6.40;2.85;;;;;;;;;;2090174;28;20032;-59
2023/12/06 04:36:12;;;;;;;4.47;2.47;;;;;;;;;;2090344;28;20033;-60
2023/12/06 04:37:12;;;;;;;6.47;3.47;;;;;;;;;;2090345;28;20063;-59
2023/12/06 04:38:13;;;;;;;3.55;1.98;;;;;;;;;;2090416;28;20500;-60
2023/12/06 04:39:14;;;;;;;7.43;3.75;;;;;;;;;;2090400;28;20037;-60
2023/12/06 04:40:15;;;;;;;5.57;3.20;;;;;;;;;;2090051;28;20049;-60
2023/12/06 04:41:16;;;;;;;8.05;3.65;;;;;;;;;;2090066;28;20323;-59
2023/12/06 04:42:17;;;;;;;4.50;2.20;;;;;;;;;;2090147;28;20400;-60
2023/12/06 04:43:18;;;;;;;10.40;2.55;;;;;;;;;;2090146;28;20033;-59
2023/12/06 04:44:18;;;;;;;4.72;3.25;;;;;;;;;;2090405;28;20032;-59
2023/12/06 04:45:19;;;;;;;3.05;1.45;;;;;;;;;;2090350;28;20075;-59
2023/12/06 04:46:20;;;;;;;5.57;3.40;;;;;;;;;;2090667;28;20064;-59
2023/12/06 04:47:21;;;;;;;4.85;3.40;;;;;;;;;;2090123;28;20021;-59
2023/12/06 04:48:22;;;;;;;8.43;3.83;;;;;;;;;;2090262;28;20040;-59
2023/12/06 04:49:22;;;;;;;5.95;3.50;;;;;;;;;;2090235;28;20041;-59
2023/12/06 04:50:23;;;;;;;5.13;3.33;;;;;;;;;;2090116;28;20064;-59
2023/12/06 04:51:24;;;;;;;6.38;3.85;;;;;;;;;;2090130;28;20161;-60
2023/12/06 04:52:24;;;;;;;9.30;3.42;;;;;;;;;;2090307;28;20037;-59
2023/12/06 04:53:25;;;;;;;7.78;4.07;;;;;;;;;;2090026;28;20091;-59
2023/12/06 04:54:26;;;;;;;8.20;3.90;;;;;;;;;;2090445;28;20400;-59
2023/12/06 04:55:27;;;;;;;6.90;3.60;;;;;;;;;;2090233;28;20041;-59
2023/12/06 04:56:27;;;;;;;7.53;4.55;;;;;;;;;;2089063;28;20053;-59
2023/12/06 04:57:28;;;;;;;6.00;2.90;;;;;;;;;;2090299;28;20405;-58
2023/12/06 04:58:29;;;;;;;6.35;3.47;;;;;;;;;;2090152;28;20029;-59
2023/12/06 04:59:30;;;;;;;5.53;1.90;;;;;;;;;;2090249;28;20032;-60
2023/12/06 05:00:30;;;;;;;8.60;4.13;;;;;;;;;;2090106;28;20044;-59
2023/12/06 05:01:32;;;;;;;4.63;2.10;;;;;;;;;;2090504;28;20060;-58
2023/12/06 05:02:33;;;;;;;5.60;3.30;;;;;;;;;;2090156;28;20037;-59
2023/12/06 05:03:33;;;;;;;6.57;3.50;;;;;;;;;;2090011;28;20052;-59
2023/12/06 05:04:34;;;;;;;6.07;3.28;;;;;;;;;;2090219;28;20049;-59
2023/12/06 05:05:35;;;;;;;3.95;2.05;;;;;;;;;;2090024;28;20397;-58
2023/12/06 05:06:36;;;;;;;5.68;2.95;;;;;;;;;;2090527;28;20029;-59
2023/12/06 05:07:36;;;;;;;9.05;3.80;;;;;;;;;;2090196;28;20052;-59
2023/12/06 05:08:37;;;;;;;7.50;3.15;;;;;;;;;;2089982;28;20059;-59
2023/12/06 05:09:38;;;;;;;9.65;4.03;;;;;;;;;;2090167;28;20477;-58
2023/12/06 05:10:39;;;;;;;6.70;2.72;;;;;;;;;;2091374;28;20052;-59
2023/12/06 05:11:39;;;;;;;7.93;3.65;;;;;;;;;;2091959;28;20036;-59
2023/12/06 05:12:40;;;;;;;4.32;1.50;;;;;;;;;;2091536;28;20045;-59
2023/12/06 05:13:41;;;;;;;4.68;3.10;;;;;;;;;;2091867;28;20044;-59
2023/12/06 05:14:41;;;;;;;6.40;3.03;;;;;;;;;;2091620;28;20496;-59
2023/12/06 05:15:43;;;;;;;7.70;3.25;;;;;;;;;;2091524;28;20388;-59
2023/12/06 05:16:44;;;;;;;6.13;3.55;;;;;;;;;;2091855;28;20044;-59
2023/12/06 05:17:44;;;;;;;10.85;3.08;;;;;;;;;;2091777;28;20052;-59
2023/12/06 05:18:45;;;;;;;5.85;2.30;;;;;;;;;;2091459;28;20404;-59
2023/12/06 05:19:46;;;;;;;6.05;3.70;;;;;;;;;;2091731;28;20495;-59
2023/12/06 05:20:47;;;;;;;8.40;3.35;;;;;;;;;;2091804;28;20025;-59
2023/12/06 05:21:47;;;;;;;6.07;3.15;;;;;;;;;;2092284;28;20036;-58
2023/12/06 05:22:48;;;;;;;6.15;3.45;;;;;;;;;;2091400;28;20033;-59
2023/12/06 05:23:49;;;;;;;9.80;3.92;;;;;;;;;;2091668;28;20033;-59
2023/12/06 05:24:50;;;;;;;3.33;1.88;;;;;;;;;;2091626;28;20041;-59
2023/12/06 05:25:50;;;;;;;3.92;2.13;;;;;;;;;;2091646;28;20021;-59
2023/12/06 05:26:51;;;;;;;5.45;3.58;;;;;;;;;;2091651;28;20041;-58
2023/12/06 05:27:52;;;;;;;10.48;3.63;;;;;;;;;;2091464;28;20029;-58
2023/12/06 05:28:52;;;;;;;6.93;3.10;;;;;;;;;;2091543;28;20078;-58
2023/12/06 05:29:54;;;;;;;5.80;3.38;;;;;;;;;;2091331;28;20174;-58
2023/12/06 05:30:54;;;;;;;6.80;2.90;;;;;;;;;;2091503;28;20052;-58
2023/12/06 05:31:55;;;;;;;6.40;2.97;;;;;;;;;;2091416;28;20040;-58
2023/12/06 05:32:56;;;;;;;13.32;3.88;;;;;;;;;;2091443;28;20041;-58
2023/12/06 05:33:58;;;;;;;6.45;4.13;;;;;;;;;;2091664;28;20043;-59
2023/12/06 05:34:58;;;;;;;7.53;3.78;;;;;;;;;;2091476;28;20032;-58
2023/12/06 05:35:59;;;;;;;10.13;3.97;;;;;;;;;;2091981;28;20041;-58
2023/12/06 05:37:00;;;;;;;6.70;3.60;;;;;;;;;;2090769;28;20067;-58
2023/12/06 05:38:01;;;;;;;7.30;3.08;;;;;;;;;;2091006;28;20424;-58
2023/12/06 05:39:05;;;;;;;4.35;2.28;;;;;;;;;;2091269;28;20044;-58
2023/12/06 05:40:06;;;;;;;6.30;3.35;;;;;;;;;;2090568;28;20043;-58
2023/12/06 05:41:07;;;;;;;5.25;2.13;;;;;;;;;;2090723;28;20028;-57
2023/12/06 05:42:08;;;;;;;5.43;2.80;;;;;;;;;;2090977;28;20413;-57
2023/12/06 05:43:08;;;;;;;5.18;3.50;;;;;;;;;;2091154;28;20056;-58
2023/12/06 05:44:09;;;;;;;6.32;3.80;;;;;;;;;;2090819;28;20029;-58
2023/12/06 05:45:10;;;;;;;5.97;3.50;;;;;;;;;;2091060;28;20044;-57
2023/12/06 05:46:11;;;;;;;4.82;2.70;;;;;;;;;;2090964;28;20033;-57
2023/12/06 05:47:11;;;;;;;15.93;3.78;;;;;;;;;;2091303;28;20032;-58
2023/12/06 05:48:12;;;;;;;5.28;3.05;;;;;;;;;;2091347;28;20037;-58
2023/12/06 05:49:13;;;;;;;7.28;3.95;;;;;;;;;;2091055;28;20033;-58
2023/12/06 05:50:14;;;;;;;6.47;3.70;;;;;;;;;;2091173;28;20044;-58
2023/12/06 05:51:14;;;;;;;5.25;3.50;;;;;;;;;;2091532;28;20040;-57
2023/12/06 05:52:15;;;;;;;6.18;3.38;;;;;;;;;;2091283;28;20508;-58
2023/12/06 05:53:16;;;;;;;3.10;2.10;;;;;;;;;;2091280;28;20021;-58
2023/12/06 05:54:17;;;;;;;6.15;2.53;;;;;;;;;;2091294;28;20037;-59
2023/12/06 05:55:18;;;;;;;5.53;3.17;;;;;;;;;;2090162;28;20045;-58
2023/12/06 05:56:18;;;;;;;6.18;3.03;;;;;;;;;;2089666;28;20492;-58
2023/12/06 05:57:19;;;;;;;5.05;3.55;;;;;;;;;;2091228;28;20040;-58
2023/12/06 05:58:20;;;;;;;4.97;3.25;;;;;;;;;;2091617;28;20056;-58
2023/12/06 05:59:20;;;;;;;6.07;3.30;;;;;;;;;;2091309;28;20044;-57
2023/12/06 06:00:22;;;;;;;7.47;2.60;;;;;;;;;;2091933;28;20049;-58
2023/12/06 06:01:23;;;;;;;3.92;2.00;;;;;;;;;;2091249;28;20409;-57
2023/12/06 06:02:23;;;;;;;7.38;3.00;;;;;;;;;;2091270;28;20033;-58
2023/12/06 06:03:24;;;;;;;6.72;3.33;;;;;;;;;;2091279;28;20064;-57
2023/12/06 06:04:26;;;;;;;5.05;2.88;;;;;;;;;;2091186;28;20037;-57